createdAt,value
2023-01-23T00:02:05.584Z,22.65
2023-01-23T00:04:34.316Z,22.83
2023-01-23T00:07:04.603Z,23.90
2023-01-23T00:09:33.700Z,23.17
2023-01-23T00:12:02.674Z,22.80
2023-01-23T00:14:31.633Z,23.23
2023-01-23T00:17:02.122Z,22.98
2023-01-23T00:22:01.065Z,22.48
2023-01-23T00:24:30.101Z,21.88
2023-01-23T00:26:59.047Z,22.88
2023-01-23T00:29:27.996Z,22.30
2023-01-23T00:31:56.630Z,22.73
2023-01-23T00:34:27.045Z,22.40
2023-01-23T00:36:56.035Z,23.13
2023-01-23T00:39:25.666Z,21.83
2023-01-23T00:41:54.661Z,24.50
2023-01-23T00:44:23.849Z,21.98
2023-01-23T00:46:52.436Z,22.15
2023-01-23T00:49:24.457Z,22.80
2023-01-23T00:51:56.496Z,23.67
2023-01-23T00:54:26.071Z,23.02
2023-01-23T00:56:55.081Z,23.63
2023-01-23T00:59:24.727Z,21.85
2023-01-23T01:01:53.426Z,24.25
2023-01-23T01:04:22.489Z,21.65
2023-01-23T01:06:51.481Z,23.25
2023-01-23T01:09:22.887Z,21.52
2023-01-23T01:11:51.980Z,24.58
2023-01-23T01:14:20.929Z,23.45
2023-01-23T01:16:49.671Z,22.98
2023-01-23T01:19:19.274Z,24.67
2023-01-23T01:21:48.574Z,22.13
2023-01-23T01:24:17.512Z,22.63
2023-01-23T01:26:47.914Z,24.45
2023-01-23T01:29:17.076Z,26.70
2023-01-23T01:31:45.848Z,24.98
2023-01-23T01:34:15.105Z,23.90
2023-01-23T01:36:44.332Z,26.60
2023-01-23T01:39:13.300Z,25.38
2023-01-23T01:41:43.934Z,25.90
2023-01-23T01:44:17.613Z,27.88
2023-01-23T01:46:47.651Z,25.20
2023-01-23T01:49:20.081Z,26.00
2023-01-23T01:51:52.347Z,25.95
2023-01-23T01:54:25.038Z,25.23
2023-01-23T01:56:57.095Z,24.77
2023-01-23T01:59:29.868Z,26.48
2023-01-23T02:02:05.247Z,25.02
2023-01-23T02:04:36.425Z,26.88
2023-01-23T02:07:12.148Z,23.55
2023-01-23T02:09:41.524Z,23.95
2023-01-23T02:12:10.762Z,25.80
2023-01-23T02:14:43.661Z,25.45
2023-01-23T02:17:12.754Z,25.15
2023-01-23T02:19:46.784Z,26.20
2023-01-23T02:22:25.128Z,24.65
2023-01-23T02:25:03.287Z,25.95
2023-01-23T02:27:33.817Z,25.35
2023-01-23T02:30:06.221Z,25.73
2023-01-23T02:32:36.353Z,26.08
2023-01-23T02:37:36.579Z,24.23
2023-01-23T02:40:06.775Z,26.25
2023-01-23T02:42:40.859Z,25.52
2023-01-23T02:45:11.206Z,25.55
2023-01-23T02:47:40.220Z,26.63
2023-01-23T02:50:10.209Z,26.60
2023-01-23T02:52:38.822Z,25.90
2023-01-23T02:55:08.539Z,26.60
2023-01-23T02:57:39.034Z,25.20
2023-01-23T03:00:17.026Z,26.27
2023-01-23T03:02:47.117Z,27.02
2023-01-23T03:05:16.722Z,27.83
2023-01-23T03:07:46.071Z,28.20
2023-01-23T03:10:15.115Z,27.63
2023-01-23T03:12:48.488Z,26.90
2023-01-23T03:15:17.773Z,27.65
2023-01-23T03:17:48.281Z,26.27
2023-01-23T03:20:20.151Z,26.15
2023-01-23T03:22:48.920Z,28.08
2023-01-23T03:25:18.098Z,25.98
2023-01-23T03:27:48.613Z,29.15
2023-01-23T03:30:20.471Z,28.38
2023-01-23T03:32:50.433Z,28.60
2023-01-23T03:35:21.506Z,26.17
2023-01-23T03:37:53.463Z,28.90
2023-01-23T03:40:42.143Z,27.10
2023-01-23T03:43:14.591Z,26.98
2023-01-23T03:45:49.347Z,27.58
2023-01-23T03:48:18.482Z,28.48
2023-01-23T03:50:47.557Z,27.33
2023-01-23T03:53:16.557Z,29.05
2023-01-23T03:55:48.205Z,28.30
2023-01-23T03:58:19.415Z,28.48
2023-01-23T04:00:49.880Z,25.85
2023-01-23T04:05:49.181Z,27.63
2023-01-23T04:08:19.745Z,27.92
2023-01-23T04:10:49.329Z,27.17
2023-01-23T04:13:20.398Z,27.70
2023-01-23T04:15:49.686Z,27.35
2023-01-23T04:18:18.788Z,27.13
2023-01-23T04:20:47.838Z,32.13
2023-01-23T04:23:16.910Z,28.42
2023-01-23T04:25:45.558Z,26.73
2023-01-23T04:28:16.022Z,28.40
2023-01-23T04:30:47.772Z,28.02
2023-01-23T04:33:22.984Z,28.25
2023-01-23T04:35:54.285Z,21.88
2023-01-23T04:38:23.695Z,28.20
2023-01-23T04:40:53.407Z,27.73
2023-01-23T04:43:22.550Z,30.15
2023-01-23T04:45:56.640Z,27.13
2023-01-23T04:48:48.017Z,26.85
2023-01-23T04:51:19.132Z,28.15
2023-01-23T04:53:48.248Z,29.70
2023-01-23T04:56:17.296Z,27.88
2023-01-23T04:58:45.956Z,27.67
2023-01-23T05:01:24.750Z,26.80
2023-01-23T05:03:59.643Z,28.38
2023-01-23T05:06:29.274Z,27.20
2023-01-23T05:09:00.190Z,27.48
2023-01-23T05:11:37.577Z,29.75
2023-01-23T05:14:06.936Z,26.92
2023-01-23T05:16:37.600Z,26.63
2023-01-23T05:19:27.039Z,26.02
2023-01-23T05:21:57.037Z,28.98
2023-01-23T05:24:27.384Z,28.60
2023-01-23T05:26:58.800Z,28.10
2023-01-23T05:29:31.559Z,26.08
2023-01-23T05:32:09.963Z,25.80
2023-01-23T05:34:39.170Z,25.85
2023-01-23T05:37:26.001Z,26.35
2023-01-23T05:40:02.520Z,25.50
2023-01-23T05:42:51.975Z,25.27
2023-01-23T05:45:44.339Z,27.05
2023-01-23T05:48:24.526Z,24.30
2023-01-23T05:50:53.607Z,25.88
2023-01-23T05:53:23.627Z,24.75
2023-01-23T05:55:52.265Z,24.20
2023-01-23T06:01:00.204Z,23.70
2023-01-23T06:03:56.372Z,26.33
2023-01-23T06:06:35.676Z,23.92
2023-01-23T06:09:04.876Z,25.73
2023-01-23T06:11:34.564Z,23.40
2023-01-23T06:14:03.782Z,27.10
2023-01-23T06:16:32.476Z,27.15
2023-01-23T06:19:03.240Z,26.30
2023-01-23T06:21:34.926Z,27.00
2023-01-23T06:24:04.653Z,25.27
2023-01-23T06:26:33.757Z,25.60
2023-01-23T06:29:02.720Z,25.23
2023-01-23T06:31:32.753Z,26.42
2023-01-23T06:34:05.434Z,26.05
2023-01-23T06:36:41.801Z,25.30
2023-01-23T06:39:15.286Z,19.80
2023-01-23T06:41:45.075Z,27.70
2023-01-23T06:44:19.646Z,25.55
2023-01-23T06:46:48.518Z,25.33
2023-01-23T06:49:19.100Z,26.90
2023-01-23T06:51:49.158Z,27.00
2023-01-23T06:54:18.414Z,26.42
2023-01-23T06:56:49.421Z,24.38
2023-01-23T06:59:18.697Z,25.75
2023-01-23T07:01:48.312Z,25.65
2023-01-23T07:04:18.830Z,26.40
2023-01-23T07:06:50.717Z,27.70
2023-01-23T07:09:21.448Z,26.95
2023-01-23T07:12:06.727Z,25.48
2023-01-23T07:14:36.372Z,26.42
2023-01-23T07:17:05.596Z,30.03
2023-01-23T07:19:35.854Z,26.15
2023-01-23T07:22:08.818Z,28.55
2023-01-23T07:24:37.856Z,26.08
2023-01-23T07:27:07.238Z,26.75
2023-01-23T07:29:36.340Z,26.00
2023-01-23T07:32:05.757Z,26.58
2023-01-23T07:34:37.094Z,26.05
2023-01-23T07:37:06.283Z,25.33
2023-01-23T07:39:35.313Z,25.13
2023-01-23T07:42:04.368Z,26.50
2023-01-23T07:44:33.638Z,25.52
2023-01-23T07:47:02.808Z,24.75
2023-01-23T07:49:31.454Z,25.70
2023-01-23T07:52:02.021Z,28.67
2023-01-23T07:54:31.417Z,26.60
2023-01-23T07:57:00.520Z,25.88
2023-01-23T07:59:29.673Z,27.10
2023-01-23T08:01:58.711Z,27.30
2023-01-23T08:04:28.113Z,26.70
2023-01-23T08:06:57.293Z,24.85
2023-01-23T08:09:27.854Z,27.15
2023-01-23T08:11:56.912Z,28.85
2023-01-23T08:14:26.137Z,25.75
2023-01-23T08:16:55.253Z,25.75
2023-01-23T08:19:25.471Z,26.30
2023-01-23T08:21:54.820Z,26.25
2023-01-23T08:24:23.886Z,26.73
2023-01-23T08:26:54.350Z,26.30
2023-01-23T08:29:23.559Z,26.25
2023-01-23T08:31:55.046Z,26.90
2023-01-23T08:34:24.418Z,25.85
2023-01-23T08:36:53.606Z,25.95
2023-01-23T08:39:22.588Z,26.25
2023-01-23T08:41:51.737Z,25.33
2023-01-23T08:44:22.327Z,27.00
2023-01-23T08:46:50.984Z,24.35
2023-01-23T08:49:20.521Z,25.55
2023-01-23T08:51:49.659Z,26.80
2023-01-23T08:54:18.736Z,28.23
2023-01-23T08:56:47.853Z,26.65
2023-01-23T08:59:16.842Z,27.15
2023-01-23T09:01:48.182Z,24.63
2023-01-23T09:04:17.674Z,25.60
2023-01-23T09:06:46.779Z,26.27
2023-01-23T09:09:15.877Z,27.25
2023-01-23T09:11:46.828Z,25.92
2023-01-23T09:14:16.492Z,27.00
2023-01-23T09:16:46.620Z,26.58
2023-01-23T09:19:16.042Z,27.05
2023-01-23T09:21:46.339Z,26.30
2023-01-23T09:26:44.158Z,26.88
2023-01-23T09:29:13.303Z,26.50
2023-01-23T09:31:42.496Z,26.48
2023-01-23T09:34:13.326Z,26.63
2023-01-23T09:36:43.676Z,26.95
2023-01-23T09:39:13.183Z,25.58
2023-01-23T09:41:42.927Z,27.63
2023-01-23T09:44:15.681Z,26.40
2023-01-23T09:46:47.945Z,26.50
2023-01-23T09:49:24.109Z,27.65
2023-01-23T09:51:57.195Z,27.45
2023-01-23T09:54:35.150Z,27.05
2023-01-23T09:57:08.081Z,28.50
2023-01-23T09:59:53.658Z,28.85
2023-01-23T10:02:26.744Z,27.75
2023-01-23T10:04:59.373Z,28.40
2023-01-23T10:07:42.613Z,27.95
2023-01-23T10:10:44.369Z,27.63
2023-01-23T10:13:17.440Z,27.45
2023-01-23T10:16:04.208Z,28.63
2023-01-23T10:18:37.156Z,27.42
2023-01-23T10:21:14.581Z,27.65
2023-01-23T10:23:53.159Z,28.45
2023-01-23T10:26:24.089Z,27.85
2023-01-23T10:28:54.971Z,27.17
2023-01-23T10:31:35.414Z,28.55
2023-01-23T10:34:12.240Z,27.27
2023-01-23T10:36:54.761Z,28.48
2023-01-23T10:39:28.758Z,28.00
2023-01-23T10:42:02.487Z,28.55
2023-01-23T10:44:32.038Z,27.55
2023-01-23T10:47:03.875Z,28.50
2023-01-23T10:49:35.325Z,30.15
2023-01-23T10:52:06.450Z,29.63
2023-01-23T10:54:47.282Z,28.98
2023-01-23T10:57:24.164Z,26.05
2023-01-23T10:59:56.866Z,27.08
2023-01-23T11:02:29.679Z,29.08
2023-01-23T11:04:59.326Z,29.02
2023-01-23T11:07:31.482Z,28.77
2023-01-23T11:10:02.168Z,28.85
2023-01-23T11:12:32.337Z,28.70
2023-01-23T11:18:00.059Z,28.20
2023-01-23T11:20:31.120Z,28.60
2023-01-23T11:23:07.229Z,27.95
2023-01-23T11:25:38.338Z,27.70
2023-01-23T11:28:23.826Z,29.35
2023-01-23T11:31:03.779Z,27.23
2023-01-23T11:33:44.473Z,28.45
2023-01-23T11:36:33.287Z,29.73
2023-01-23T11:39:13.428Z,27.55
2023-01-23T11:41:42.552Z,27.08
2023-01-23T11:44:18.587Z,25.42
2023-01-23T11:47:02.983Z,25.75
2023-01-23T11:49:54.715Z,24.95
2023-01-23T11:52:31.980Z,26.60
2023-01-23T11:55:29.548Z,26.90
2023-01-23T11:58:09.790Z,28.17
2023-01-23T12:03:38.049Z,21.02
2023-01-23T12:06:24.736Z,30.02
2023-01-23T12:09:00.505Z,29.73
2023-01-23T12:11:34.985Z,30.52
2023-01-23T12:14:06.344Z,31.90
2023-01-23T12:16:48.279Z,30.95
2023-01-23T12:19:27.532Z,31.00
2023-01-23T12:22:02.233Z,30.75
2023-01-23T12:24:42.050Z,32.13
2023-01-23T12:27:19.340Z,34.17
2023-01-23T12:30:13.621Z,35.17
2023-01-23T12:32:52.740Z,30.83
2023-01-23T12:35:32.039Z,31.15
2023-01-23T12:38:14.346Z,31.80
2023-01-23T12:40:46.452Z,29.98
2023-01-23T12:43:19.658Z,30.42
2023-01-23T12:45:52.634Z,31.35
2023-01-23T12:48:28.256Z,31.95
2023-01-23T12:50:59.745Z,32.38
2023-01-23T12:53:30.600Z,31.60
2023-01-23T12:56:03.253Z,30.92
2023-01-23T12:58:36.440Z,31.85
2023-01-23T13:01:27.415Z,32.78
2023-01-23T13:04:20.159Z,30.45
2023-01-23T13:07:09.310Z,32.65
2023-01-23T13:09:49.516Z,33.45
2023-01-23T13:12:22.883Z,33.72
2023-01-23T13:15:12.982Z,33.65
2023-01-23T13:17:46.001Z,32.88
2023-01-23T13:20:46.199Z,31.40
2023-01-23T13:23:28.245Z,32.05
2023-01-23T13:26:29.071Z,33.97
2023-01-23T13:29:04.184Z,33.45
2023-01-23T13:31:45.455Z,33.67
2023-01-23T13:34:36.176Z,34.40
2023-01-23T13:37:33.639Z,34.95
2023-01-23T13:40:16.603Z,33.25
2023-01-23T13:42:48.694Z,34.53
2023-01-23T13:45:31.722Z,31.20
2023-01-23T14:20:43.733Z,29.25
2023-01-23T14:23:29.175Z,28.05
2023-01-23T14:26:00.419Z,26.95
2023-01-23T14:28:33.581Z,27.05
2023-01-23T14:31:07.901Z,25.77
2023-01-23T14:34:01.924Z,25.00
2023-01-23T14:37:04.270Z,26.25
2023-01-23T14:39:52.841Z,25.60
2023-01-23T14:43:14.840Z,24.55
2023-01-23T14:45:56.346Z,26.45
2023-01-23T14:48:35.599Z,27.73
2023-01-23T14:51:20.613Z,27.20
2023-01-23T14:54:23.229Z,27.73
2023-01-23T14:57:04.741Z,28.08
2023-01-23T15:00:27.361Z,27.50
2023-01-23T15:03:00.135Z,29.15
2023-01-23T15:05:40.050Z,29.45
2023-01-23T15:08:29.008Z,29.15
2023-01-23T15:11:14.237Z,27.88
2023-01-23T15:14:05.121Z,28.40
2023-01-23T15:16:44.615Z,26.92
2023-01-23T15:19:30.672Z,27.27
2023-01-23T15:22:30.908Z,27.85
2023-01-23T15:25:27.083Z,28.38
2023-01-23T15:27:57.679Z,27.42
2023-01-23T15:30:47.092Z,27.55
2023-01-23T15:33:26.872Z,28.20
2023-01-23T15:36:03.952Z,27.67
2023-01-23T15:38:34.200Z,28.40
2023-01-23T15:43:39.078Z,28.67
2023-01-23T15:46:11.657Z,28.92
2023-01-23T15:48:40.922Z,30.30
2023-01-23T15:51:12.783Z,29.38
2023-01-23T15:53:42.008Z,30.95
2023-01-23T15:56:24.699Z,31.33
2023-01-23T15:58:54.890Z,27.55
2023-01-23T16:01:24.123Z,30.80
2023-01-23T16:03:53.293Z,30.52
2023-01-23T16:06:23.715Z,30.33
2023-01-23T16:11:37.560Z,30.77
2023-01-23T16:14:10.684Z,31.55
2023-01-23T16:16:40.179Z,30.75
2023-01-23T16:19:09.394Z,33.70
2023-01-23T16:21:38.543Z,29.88
2023-01-23T16:24:08.285Z,30.75
2023-01-23T16:26:44.065Z,30.33
2023-01-23T16:29:26.497Z,31.17
2023-01-23T16:31:56.095Z,31.27
2023-01-23T16:34:25.303Z,29.75
2023-01-23T16:36:55.934Z,29.33
2023-01-23T16:39:27.138Z,30.48
2023-01-23T16:41:56.152Z,30.02
2023-01-23T16:44:28.065Z,30.52
2023-01-23T16:46:56.799Z,30.95
2023-01-23T16:49:26.839Z,29.95
2023-01-23T16:51:59.112Z,30.90
2023-01-23T16:54:28.711Z,29.75
2023-01-23T16:56:59.357Z,30.03
2023-01-23T16:59:33.001Z,31.48
2023-01-23T17:02:02.724Z,30.73
2023-01-23T17:04:32.381Z,31.98
2023-01-23T17:07:01.487Z,30.58
2023-01-23T17:09:30.574Z,29.98
2023-01-23T17:11:59.861Z,33.28
2023-01-23T17:14:32.106Z,31.52
2023-01-23T17:17:06.236Z,30.52
2023-01-23T17:19:39.939Z,30.05
2023-01-23T17:22:14.382Z,29.48
2023-01-23T17:24:43.445Z,32.17
2023-01-23T17:27:12.669Z,30.25
2023-01-23T17:29:43.293Z,30.52
2023-01-23T17:32:21.344Z,30.70
2023-01-23T17:34:50.568Z,30.30
2023-01-23T17:37:21.890Z,32.40
2023-01-23T17:39:51.254Z,32.65
2023-01-23T17:42:22.004Z,33.08
2023-01-23T17:44:52.644Z,32.55
2023-01-23T17:47:22.031Z,33.97
2023-01-23T17:49:54.819Z,33.13
2023-01-23T17:52:25.042Z,32.83
2023-01-23T17:57:24.048Z,32.47
2023-01-23T17:59:56.452Z,35.05
2023-01-23T18:02:28.817Z,32.63
2023-01-23T18:04:59.883Z,34.35
2023-01-23T18:09:57.788Z,31.83
2023-01-23T18:12:31.254Z,32.38
2023-01-23T18:15:08.465Z,32.65
2023-01-23T18:17:44.668Z,33.53
2023-01-23T18:20:19.255Z,37.13
2023-01-23T18:22:48.792Z,35.42
2023-01-23T18:25:20.053Z,33.92
2023-01-23T18:27:54.362Z,35.35
2023-01-23T18:30:38.867Z,36.63
2023-01-23T18:33:37.588Z,36.15
2023-01-23T18:36:31.190Z,36.70
2023-01-23T18:39:22.180Z,35.67
2023-01-23T18:42:02.224Z,34.88
2023-01-23T18:44:34.833Z,35.30
2023-01-23T18:47:09.719Z,37.13
2023-01-23T18:49:39.334Z,36.38
2023-01-23T18:52:11.267Z,34.75
2023-01-23T18:54:44.524Z,36.00
2023-01-23T18:57:24.520Z,35.50
2023-01-23T18:59:58.116Z,32.63
2023-01-23T19:02:34.259Z,35.88
2023-01-23T19:05:21.182Z,34.40
2023-01-23T19:07:50.989Z,33.92
2023-01-23T19:10:22.089Z,36.80
2023-01-23T19:13:01.076Z,34.97
2023-01-23T19:15:31.666Z,34.85
2023-01-23T19:18:11.088Z,35.83
2023-01-23T19:20:45.552Z,35.10
2023-01-23T19:23:25.603Z,37.70
2023-01-23T19:25:54.599Z,37.60
2023-01-23T19:28:24.220Z,35.03
2023-01-23T19:30:54.295Z,35.47
2023-01-23T19:33:24.810Z,45.30
2023-01-23T19:35:56.748Z,43.92
2023-01-23T19:38:25.980Z,41.72
2023-01-23T19:40:54.894Z,42.30
2023-01-23T19:43:23.928Z,38.50
2023-01-23T19:45:52.952Z,42.95
2023-01-23T19:48:22.152Z,39.40
2023-01-23T19:50:52.784Z,37.00
2023-01-23T19:53:22.354Z,38.88
2023-01-23T19:55:51.156Z,37.20
2023-01-23T19:58:21.345Z,35.83
2023-01-23T20:03:19.459Z,36.92
2023-01-23T20:05:49.826Z,36.13
2023-01-23T20:10:49.174Z,37.55
2023-01-23T20:13:18.380Z,35.42
2023-01-23T20:15:47.529Z,38.70
2023-01-23T20:18:16.659Z,35.30
2023-01-23T20:20:45.677Z,39.03
2023-01-23T20:23:14.783Z,36.42
2023-01-23T20:25:45.282Z,39.15
2023-01-23T20:28:14.338Z,39.08
2023-01-23T20:30:43.563Z,41.53
2023-01-23T20:33:13.194Z,37.38
2023-01-23T20:35:42.239Z,38.13
2023-01-23T20:38:11.347Z,38.58
2023-01-23T20:40:40.128Z,39.65
2023-01-23T20:43:10.753Z,39.03
2023-01-23T20:45:47.003Z,39.20
2023-01-23T20:48:16.449Z,40.65
2023-01-23T20:50:45.779Z,41.50
2023-01-23T20:53:34.943Z,44.33
2023-01-23T20:56:06.197Z,41.50
2023-01-23T20:58:55.713Z,41.85
2023-01-23T21:01:28.311Z,40.53
2023-01-23T21:03:57.860Z,41.40
2023-01-23T21:06:27.030Z,44.07
2023-01-23T21:08:58.266Z,40.22
2023-01-23T21:11:27.605Z,42.22
2023-01-23T21:13:58.242Z,41.50
2023-01-23T21:16:27.266Z,43.22
2023-01-23T21:18:56.505Z,42.40
2023-01-23T21:21:25.765Z,41.13
2023-01-23T21:23:55.186Z,43.80
2023-01-23T21:26:26.174Z,42.75
2023-01-23T21:28:55.851Z,44.75
2023-01-23T21:31:28.498Z,43.47
2023-01-23T21:34:00.254Z,41.40
2023-01-23T21:36:30.162Z,42.25
2023-01-23T21:38:59.466Z,32.20
2023-01-23T21:41:28.638Z,40.95
2023-01-23T21:43:57.534Z,43.53
2023-01-23T21:46:28.013Z,42.53
2023-01-23T21:48:57.362Z,44.10
2023-01-23T21:51:27.860Z,42.33
2023-01-23T21:53:57.234Z,43.38
2023-01-23T21:56:26.759Z,44.38
2023-01-23T21:58:55.545Z,43.78
2023-01-23T22:01:35.855Z,41.60
2023-01-23T22:04:09.237Z,43.03
2023-01-23T22:06:39.368Z,44.72
2023-01-23T22:11:37.859Z,40.47
2023-01-23T22:14:07.185Z,42.47
2023-01-23T22:16:47.980Z,44.33
2023-01-23T22:19:24.262Z,42.55
2023-01-23T22:21:54.746Z,41.97
2023-01-23T22:24:23.970Z,43.50
2023-01-23T22:26:53.145Z,43.50
2023-01-23T22:29:23.017Z,44.47
2023-01-23T22:31:52.553Z,45.33
2023-01-23T22:34:23.164Z,45.00
2023-01-23T22:36:52.260Z,42.05
2023-01-23T22:39:21.302Z,47.13
2023-01-23T22:41:51.357Z,39.67
2023-01-23T22:44:20.454Z,44.45
2023-01-23T22:46:51.602Z,42.47
2023-01-23T22:49:22.453Z,43.35
2023-01-23T22:51:52.151Z,43.47
2023-01-23T22:54:21.251Z,42.60
2023-01-23T22:56:50.363Z,42.47
2023-01-23T22:59:19.372Z,43.38
2023-01-23T23:01:47.966Z,42.40
2023-01-23T23:04:16.968Z,44.95
2023-01-23T23:09:17.416Z,41.65
2023-01-23T23:11:49.085Z,42.38
2023-01-23T23:14:18.133Z,40.47
2023-01-23T23:16:46.859Z,42.50
2023-01-23T23:19:15.982Z,42.17
2023-01-23T23:21:44.985Z,41.92
2023-01-23T23:24:15.548Z,42.05
2023-01-23T23:26:44.707Z,42.67
2023-01-23T23:29:13.733Z,43.28
2023-01-23T23:31:42.967Z,44.22
2023-01-23T23:34:12.256Z,43.17
2023-01-23T23:36:41.393Z,43.70
2023-01-23T23:39:10.757Z,41.70
2023-01-23T23:41:41.372Z,42.80
2023-01-23T23:44:10.610Z,45.80
2023-01-23T23:46:39.716Z,43.13
2023-01-23T23:49:10.196Z,42.50
2023-01-23T23:51:39.439Z,39.83
2023-01-23T23:54:08.728Z,45.00
2023-01-23T23:56:37.976Z,42.38
2023-01-23T23:59:08.681Z,40.58
